KGGP Airport (Logansport/Cass County) Information

FAA: GGP - ICAO: KGGP

KGGP Airport Location

State Indiana
County Cass
City Logansport
KGGP Airport is 2 miles south of Logansport, IN.
Latitude 40-42-40.5520N
Longitude 086-22-21.7370W
Elevation 738ft

KGGP Airport METARs

METAR KGGP 060755Z AUTO 08007KT 10SM CLR 24/21 A2988 RMK AO2
Altimeter 29.88"
Temperature 24.0°C (75.2°F)
Wind 80° at 7KT
Clouds Skies are clear.
Visibility 10.0mi
Time observed: 2022-07-06T07:55:00Z

KGGP Airport Details

Status Operational
Activation November 1959
Ownership Public
Usage Public
Chart CHICAGO
ATC on-site No
Beacon schedule sunset-sunrise
Beacon color clear green

KGGP Airport Contacts

Owner LOGANSPORT CASS ARPT AUTHORITY
Owner address 3735 S. AIRPORT RD, LOGANSPORT, IN 46947
Owner phone 574-753-4300
Manager N/A
Manager address N/A, N/A
Manager phone N/A

KGGP Airport (Logansport/Cass County) Radio Frequencies

KGGP (Airport) Radio Frequencies

UNICOM 122.8
Common traffic advisory frequency (CTAF) 122.8